sensor_id;sensor_type;location;lat;lon;timestamp;pressure;altitude;pressure_sealevel;temperature
70831;BMP180;58451;51.550;7.208;2023-04-03T00:00:36;102158.00;;;-0.10
70831;BMP180;58451;51.550;7.208;2023-04-03T00:02:08;102159.00;;;-0.10
70831;BMP180;58451;51.550;7.208;2023-04-03T00:03:41;102157.00;;;-0.12
70831;BMP180;58451;51.550;7.208;2023-04-03T00:05:13;102162.80;;;-0.16
70831;BMP180;58451;51.550;7.208;2023-04-03T00:06:45;102158.20;;;-0.20
70831;BMP180;58451;51.550;7.208;2023-04-03T00:08:17;102164.80;;;-0.20
70831;BMP180;58451;51.550;7.208;2023-04-03T00:09:48;102161.00;;;-0.20
70831;BMP180;58451;51.550;7.208;2023-04-03T00:11:20;102160.60;;;-0.20
70831;BMP180;58451;51.550;7.208;2023-04-03T00:12:53;102164.60;;;-0.20
70831;BMP180;58451;51.550;7.208;2023-04-03T00:14:25;102166.20;;;-0.20
70831;BMP180;58451;51.550;7.208;2023-04-03T00:15:59;102167.20;;;-0.20
70831;BMP180;58451;51.550;7.208;2023-04-03T00:17:31;102168.40;;;-0.28
70831;BMP180;58451;51.550;7.208;2023-04-03T00:19:03;102165.40;;;-0.30
70831;BMP180;58451;51.550;7.208;2023-04-03T00:20:35;102173.40;;;-0.30
70831;BMP180;58451;51.550;7.208;2023-04-03T00:22:07;102167.20;;;-0.30
70831;BMP180;58451;51.550;7.208;2023-04-03T00:23:39;102164.60;;;-0.32
70831;BMP180;58451;51.550;7.208;2023-04-03T00:25:11;102167.60;;;-0.38
70831;BMP180;58451;51.550;7.208;2023-04-03T00:26:43;102168.00;;;-0.40
70831;BMP180;58451;51.550;7.208;2023-04-03T00:28:15;102170.20;;;-0.40
70831;BMP180;58451;51.550;7.208;2023-04-03T00:29:46;102167.80;;;-0.40
70831;BMP180;58451;51.550;7.208;2023-04-03T00:31:18;102167.60;;;-0.40
70831;BMP180;58451;51.550;7.208;2023-04-03T00:32:52;102166.40;;;-0.40
70831;BMP180;58451;51.550;7.208;2023-04-03T00:34:25;102170.20;;;-0.40
70831;BMP180;58451;51.550;7.208;2023-04-03T00:35:56;102164.80;;;-0.44
70831;BMP180;58451;51.550;7.208;2023-04-03T00:37:28;102165.40;;;-0.50
70831;BMP180;58451;51.550;7.208;2023-04-03T00:39:01;102164.80;;;-0.50
70831;BMP180;58451;51.550;7.208;2023-04-03T00:40:39;102166.60;;;-0.50
70831;BMP180;58451;51.550;7.208;2023-04-03T00:42:13;102164.80;;;-0.50
70831;BMP180;58451;51.550;7.208;2023-04-03T00:43:45;102167.20;;;-0.50
70831;BMP180;58451;51.550;7.208;2023-04-03T00:45:39;102164.40;;;-0.50
70831;BMP180;58451;51.550;7.208;2023-04-03T00:47:15;102166.60;;;-0.50
70831;BMP180;58451;51.550;7.208;2023-04-03T00:48:49;102165.00;;;-0.50
70831;BMP180;58451;51.550;7.208;2023-04-03T00:50:21;102163.60;;;-0.60
70831;BMP180;58451;51.550;7.208;2023-04-03T00:51:55;102168.20;;;-0.60
70831;BMP180;58451;51.550;7.208;2023-04-03T00:53:35;102169.20;;;-0.60
70831;BMP180;58451;51.550;7.208;2023-04-03T00:55:09;102170.40;;;-0.60
70831;BMP180;58451;51.550;7.208;2023-04-03T00:56:42;102171.20;;;-0.60
70831;BMP180;58451;51.550;7.208;2023-04-03T00:58:17;102169.80;;;-0.60
70831;BMP180;58451;51.550;7.208;2023-04-03T00:59:58;102170.20;;;-0.62
70831;BMP180;58451;51.550;7.208;2023-04-03T01:01:31;102170.60;;;-0.64
70831;BMP180;58451;51.550;7.208;2023-04-03T01:03:03;102173.40;;;-0.62
70831;BMP180;58451;51.550;7.208;2023-04-03T01:04:39;102173.60;;;-0.60
70831;BMP180;58451;51.550;7.208;2023-04-03T01:06:16;102171.60;;;-0.62
70831;BMP180;58451;51.550;7.208;2023-04-03T01:07:51;102171.80;;;-0.60
70831;BMP180;58451;51.550;7.208;2023-04-03T01:09:24;102171.80;;;-0.64
70831;BMP180;58451;51.550;7.208;2023-04-03T01:10:56;102172.80;;;-0.64
70831;BMP180;58451;51.550;7.208;2023-04-03T01:12:33;102173.00;;;-0.60
70831;BMP180;58451;51.550;7.208;2023-04-03T01:14:05;102173.40;;;-0.60
70831;BMP180;58451;51.550;7.208;2023-04-03T01:15:38;102169.00;;;-0.60
70831;BMP180;58451;51.550;7.208;2023-04-03T01:17:45;102178.40;;;-0.60
70831;BMP180;58451;51.550;7.208;2023-04-03T01:19:18;102175.20;;;-0.60
70831;BMP180;58451;51.550;7.208;2023-04-03T01:21:13;102180.00;;;-0.60
70831;BMP180;58451;51.550;7.208;2023-04-03T01:23:30;102181.20;;;-0.60
70831;BMP180;58451;51.550;7.208;2023-04-03T01:25:05;102177.40;;;-0.58
70831;BMP180;58451;51.550;7.208;2023-04-03T01:26:37;102176.80;;;-0.60
70831;BMP180;58451;51.550;7.208;2023-04-03T01:28:17;102175.20;;;-0.60
70831;BMP180;58451;51.550;7.208;2023-04-03T01:29:49;102175.20;;;-0.58
70831;BMP180;58451;51.550;7.208;2023-04-03T01:31:49;102177.60;;;-0.52
70831;BMP180;58451;51.550;7.208;2023-04-03T01:33:22;102181.40;;;-0.50
70831;BMP180;58451;51.550;7.208;2023-04-03T01:34:54;102179.20;;;-0.50
70831;BMP180;58451;51.550;7.208;2023-04-03T01:36:31;102177.40;;;-0.50
70831;BMP180;58451;51.550;7.208;2023-04-03T01:38:03;102182.80;;;-0.50
70831;BMP180;58451;51.550;7.208;2023-04-03T01:39:34;102178.80;;;-0.50
70831;BMP180;58451;51.550;7.208;2023-04-03T01:41:06;102176.40;;;-0.50
70831;BMP180;58451;51.550;7.208;2023-04-03T01:42:38;102180.80;;;-0.50
70831;BMP180;58451;51.550;7.208;2023-04-03T01:44:10;102180.00;;;-0.50
70831;BMP180;58451;51.550;7.208;2023-04-03T01:45:43;102178.20;;;-0.50
70831;BMP180;58451;51.550;7.208;2023-04-03T01:47:15;102180.00;;;-0.50
70831;BMP180;58451;51.550;7.208;2023-04-03T01:48:48;102178.20;;;-0.50
70831;BMP180;58451;51.550;7.208;2023-04-03T01:50:20;102181.00;;;-0.50
70831;BMP180;58451;51.550;7.208;2023-04-03T01:51:52;102181.60;;;-0.50
70831;BMP180;58451;51.550;7.208;2023-04-03T01:53:24;102181.40;;;-0.50
70831;BMP180;58451;51.550;7.208;2023-04-03T01:54:55;102181.60;;;-0.50
70831;BMP180;58451;51.550;7.208;2023-04-03T01:56:28;102179.60;;;-0.50
70831;BMP180;58451;51.550;7.208;2023-04-03T01:58:00;102178.80;;;-0.50
70831;BMP180;58451;51.550;7.208;2023-04-03T01:59:32;102177.80;;;-0.46
70831;BMP180;58451;51.550;7.208;2023-04-03T02:01:04;102183.40;;;-0.40
70831;BMP180;58451;51.550;7.208;2023-04-03T02:02:37;102181.40;;;-0.40
70831;BMP180;58451;51.550;7.208;2023-04-03T02:04:09;102176.40;;;-0.40
70831;BMP180;58451;51.550;7.208;2023-04-03T02:05:41;102179.60;;;-0.40
70831;BMP180;58451;51.550;7.208;2023-04-03T02:07:12;102183.40;;;-0.40
70831;BMP180;58451;51.550;7.208;2023-04-03T02:08:44;102186.60;;;-0.40
70831;BMP180;58451;51.550;7.208;2023-04-03T02:10:16;102187.40;;;-0.40
70831;BMP180;58451;51.550;7.208;2023-04-03T02:11:48;102186.40;;;-0.40
70831;BMP180;58451;51.550;7.208;2023-04-03T02:13:20;102189.80;;;-0.40
70831;BMP180;58451;51.550;7.208;2023-04-03T02:14:52;102188.00;;;-0.40
70831;BMP180;58451;51.550;7.208;2023-04-03T02:16:24;102191.00;;;-0.40
70831;BMP180;58451;51.550;7.208;2023-04-03T02:17:56;102192.00;;;-0.40
70831;BMP180;58451;51.550;7.208;2023-04-03T02:19:28;102194.80;;;-0.40
70831;BMP180;58451;51.550;7.208;2023-04-03T02:21:01;102195.00;;;-0.40
70831;BMP180;58451;51.550;7.208;2023-04-03T02:22:33;102201.80;;;-0.40
70831;BMP180;58451;51.550;7.208;2023-04-03T02:24:05;102199.00;;;-0.40
70831;BMP180;58451;51.550;7.208;2023-04-03T02:25:38;102199.00;;;-0.40
70831;BMP180;58451;51.550;7.208;2023-04-03T02:27:10;102200.80;;;-0.40
70831;BMP180;58451;51.550;7.208;2023-04-03T02:28:42;102202.00;;;-0.40
70831;BMP180;58451;51.550;7.208;2023-04-03T02:30:14;102202.60;;;-0.40
70831;BMP180;58451;51.550;7.208;2023-04-03T02:31:46;102202.40;;;-0.40
70831;BMP180;58451;51.550;7.208;2023-04-03T02:33:18;102202.80;;;-0.40
70831;BMP180;58451;51.550;7.208;2023-04-03T02:34:50;102201.20;;;-0.40
70831;BMP180;58451;51.550;7.208;2023-04-03T02:36:22;102207.40;;;-0.40
70831;BMP180;58451;51.550;7.208;2023-04-03T02:37:58;102206.00;;;-0.40
70831;BMP180;58451;51.550;7.208;2023-04-03T02:39:30;102209.60;;;-0.40
70831;BMP180;58451;51.550;7.208;2023-04-03T02:41:06;102201.60;;;-0.40
70831;BMP180;58451;51.550;7.208;2023-04-03T02:42:39;102207.60;;;-0.44
70831;BMP180;58451;51.550;7.208;2023-04-03T02:44:12;102205.20;;;-0.44
70831;BMP180;58451;51.550;7.208;2023-04-03T02:45:44;102206.20;;;-0.40
70831;BMP180;58451;51.550;7.208;2023-04-03T02:47:17;102210.60;;;-0.40
70831;BMP180;58451;51.550;7.208;2023-04-03T02:48:49;102212.60;;;-0.40
70831;BMP180;58451;51.550;7.208;2023-04-03T02:50:20;102213.60;;;-0.40
70831;BMP180;58451;51.550;7.208;2023-04-03T02:51:52;102210.40;;;-0.40
70831;BMP180;58451;51.550;7.208;2023-04-03T02:53:24;102209.60;;;-0.40
70831;BMP180;58451;51.550;7.208;2023-04-03T02:54:56;102209.00;;;-0.40
70831;BMP180;58451;51.550;7.208;2023-04-03T02:56:28;102212.40;;;-0.40
70831;BMP180;58451;51.550;7.208;2023-04-03T02:58:00;102217.20;;;-0.40
70831;BMP180;58451;51.550;7.208;2023-04-03T02:59:31;102214.00;;;-0.40
70831;BMP180;58451;51.550;7.208;2023-04-03T03:01:03;102212.00;;;-0.40
70831;BMP180;58451;51.550;7.208;2023-04-03T03:02:36;102211.80;;;-0.40
70831;BMP180;58451;51.550;7.208;2023-04-03T03:04:07;102214.00;;;-0.40
70831;BMP180;58451;51.550;7.208;2023-04-03T03:05:39;102218.20;;;-0.40
70831;BMP180;58451;51.550;7.208;2023-04-03T03:07:11;102215.20;;;-0.40
70831;BMP180;58451;51.550;7.208;2023-04-03T03:08:43;102214.40;;;-0.40
70831;BMP180;58451;51.550;7.208;2023-04-03T03:10:16;102213.60;;;-0.40
70831;BMP180;58451;51.550;7.208;2023-04-03T03:11:49;102215.00;;;-0.40
70831;BMP180;58451;51.550;7.208;2023-04-03T03:13:21;102215.60;;;-0.40
70831;BMP180;58451;51.550;7.208;2023-04-03T03:14:53;102223.40;;;-0.40
70831;BMP180;58451;51.550;7.208;2023-04-03T03:16:25;102215.60;;;-0.40
70831;BMP180;58451;51.550;7.208;2023-04-03T03:17:57;102216.60;;;-0.40
70831;BMP180;58451;51.550;7.208;2023-04-03T03:19:30;102212.80;;;-0.40
70831;BMP180;58451;51.550;7.208;2023-04-03T03:21:04;102209.80;;;-0.40
70831;BMP180;58451;51.550;7.208;2023-04-03T03:22:36;102213.40;;;-0.40
70831;BMP180;58451;51.550;7.208;2023-04-03T03:24:08;102213.80;;;-0.40
70831;BMP180;58451;51.550;7.208;2023-04-03T03:25:40;102209.80;;;-0.46
70831;BMP180;58451;51.550;7.208;2023-04-03T03:27:12;102215.40;;;-0.40
70831;BMP180;58451;51.550;7.208;2023-04-03T03:28:44;102212.60;;;-0.46
70831;BMP180;58451;51.550;7.208;2023-04-03T03:30:18;102215.40;;;-0.48
70831;BMP180;58451;51.550;7.208;2023-04-03T03:31:50;102215.40;;;-0.50
70831;BMP180;58451;51.550;7.208;2023-04-03T03:33:22;102216.20;;;-0.50
70831;BMP180;58451;51.550;7.208;2023-04-03T03:34:53;102218.00;;;-0.50
70831;BMP180;58451;51.550;7.208;2023-04-03T03:36:25;102214.20;;;-0.50
70831;BMP180;58451;51.550;7.208;2023-04-03T03:37:57;102217.40;;;-0.50
70831;BMP180;58451;51.550;7.208;2023-04-03T03:39:29;102214.80;;;-0.50
70831;BMP180;58451;51.550;7.208;2023-04-03T03:41:01;102217.40;;;-0.50
70831;BMP180;58451;51.550;7.208;2023-04-03T03:42:33;102219.80;;;-0.50
70831;BMP180;58451;51.550;7.208;2023-04-03T03:44:06;102218.20;;;-0.50
70831;BMP180;58451;51.550;7.208;2023-04-03T03:45:38;102219.00;;;-0.50
70831;BMP180;58451;51.550;7.208;2023-04-03T03:47:10;102215.20;;;-0.52
70831;BMP180;58451;51.550;7.208;2023-04-03T03:48:43;102219.40;;;-0.58
70831;BMP180;58451;51.550;7.208;2023-04-03T03:50:15;102214.80;;;-0.60
70831;BMP180;58451;51.550;7.208;2023-04-03T03:51:47;102215.60;;;-0.60
70831;BMP180;58451;51.550;7.208;2023-04-03T03:53:19;102217.40;;;-0.60
70831;BMP180;58451;51.550;7.208;2023-04-03T03:54:51;102210.00;;;-0.60
70831;BMP180;58451;51.550;7.208;2023-04-03T03:56:23;102215.80;;;-0.60
70831;BMP180;58451;51.550;7.208;2023-04-03T03:57:55;102219.80;;;-0.60
70831;BMP180;58451;51.550;7.208;2023-04-03T03:59:27;102220.00;;;-0.60
70831;BMP180;58451;51.550;7.208;2023-04-03T04:01:04;102220.60;;;-0.60
70831;BMP180;58451;51.550;7.208;2023-04-03T04:02:38;102219.60;;;-0.60
70831;BMP180;58451;51.550;7.208;2023-04-03T04:04:10;102218.40;;;-0.60
70831;BMP180;58451;51.550;7.208;2023-04-03T04:05:43;102223.20;;;-0.60
70831;BMP180;58451;51.550;7.208;2023-04-03T04:07:15;102223.80;;;-0.60
70831;BMP180;58451;51.550;7.208;2023-04-03T04:08:47;102220.00;;;-0.70
70831;BMP180;58451;51.550;7.208;2023-04-03T04:10:19;102218.80;;;-0.70
70831;BMP180;58451;51.550;7.208;2023-04-03T04:11:52;102222.60;;;-0.70
70831;BMP180;58451;51.550;7.208;2023-04-03T04:13:24;102221.80;;;-0.70
70831;BMP180;58451;51.550;7.208;2023-04-03T04:14:58;102227.60;;;-0.70
70831;BMP180;58451;51.550;7.208;2023-04-03T04:16:29;102229.60;;;-0.72
70831;BMP180;58451;51.550;7.208;2023-04-03T04:18:03;102235.20;;;-0.80
70831;BMP180;58451;51.550;7.208;2023-04-03T04:19:35;102233.20;;;-0.80
70831;BMP180;58451;51.550;7.208;2023-04-03T04:21:07;102236.60;;;-0.80
70831;BMP180;58451;51.550;7.208;2023-04-03T04:22:39;102237.60;;;-0.80
70831;BMP180;58451;51.550;7.208;2023-04-03T04:24:11;102240.60;;;-0.82
70831;BMP180;58451;51.550;7.208;2023-04-03T04:25:48;102240.20;;;-0.90
70831;BMP180;58451;51.550;7.208;2023-04-03T04:27:20;102243.40;;;-0.90
70831;BMP180;58451;51.550;7.208;2023-04-03T04:28:52;102239.60;;;-0.90
70831;BMP180;58451;51.550;7.208;2023-04-03T04:30:25;102244.00;;;-0.90
70831;BMP180;58451;51.550;7.208;2023-04-03T04:31:58;102239.60;;;-0.90
70831;BMP180;58451;51.550;7.208;2023-04-03T04:33:30;102241.40;;;-0.90
70831;BMP180;58451;51.550;7.208;2023-04-03T04:35:04;102244.20;;;-0.90
70831;BMP180;58451;51.550;7.208;2023-04-03T04:36:37;102245.00;;;-0.90
70831;BMP180;58451;51.550;7.208;2023-04-03T04:38:09;102241.80;;;-0.90
70831;BMP180;58451;51.550;7.208;2023-04-03T04:39:42;102242.80;;;-0.88
70831;BMP180;58451;51.550;7.208;2023-04-03T04:41:13;102245.20;;;-0.84
70831;BMP180;58451;51.550;7.208;2023-04-03T04:42:45;102248.00;;;-0.90
70831;BMP180;58451;51.550;7.208;2023-04-03T04:44:17;102249.00;;;-0.86
70831;BMP180;58451;51.550;7.208;2023-04-03T04:45:49;102254.00;;;-0.88
70831;BMP180;58451;51.550;7.208;2023-04-03T04:47:22;102245.80;;;-0.90
70831;BMP180;58451;51.550;7.208;2023-04-03T04:48:54;102250.60;;;-0.90
70831;BMP180;58451;51.550;7.208;2023-04-03T04:50:27;102252.20;;;-0.90
70831;BMP180;58451;51.550;7.208;2023-04-03T04:51:59;102251.00;;;-0.90
70831;BMP180;58451;51.550;7.208;2023-04-03T04:53:33;102253.60;;;-0.90
70831;BMP180;58451;51.550;7.208;2023-04-03T04:55:06;102257.20;;;-0.90
70831;BMP180;58451;51.550;7.208;2023-04-03T04:56:38;102264.40;;;-0.90
70831;BMP180;58451;51.550;7.208;2023-04-03T04:58:10;102266.00;;;-0.90
70831;BMP180;58451;51.550;7.208;2023-04-03T04:59:42;102262.00;;;-0.90
70831;BMP180;58451;51.550;7.208;2023-04-03T05:01:14;102266.60;;;-0.90
70831;BMP180;58451;51.550;7.208;2023-04-03T05:02:55;102265.60;;;-0.92
70831;BMP180;58451;51.550;7.208;2023-04-03T05:04:27;102266.60;;;-0.96
70831;BMP180;58451;51.550;7.208;2023-04-03T05:06:04;102271.20;;;-0.90
70831;BMP180;58451;51.550;7.208;2023-04-03T05:07:37;102271.60;;;-0.90
70831;BMP180;58451;51.550;7.208;2023-04-03T05:09:09;102276.00;;;-0.90
70831;BMP180;58451;51.550;7.208;2023-04-03T05:10:41;102274.00;;;-0.90
70831;BMP180;58451;51.550;7.208;2023-04-03T05:12:14;102272.60;;;-0.90
70831;BMP180;58451;51.550;7.208;2023-04-03T05:13:51;102278.80;;;-0.90
70831;BMP180;58451;51.550;7.208;2023-04-03T05:15:23;102276.80;;;-0.90
70831;BMP180;58451;51.550;7.208;2023-04-03T05:16:55;102280.80;;;-0.90
70831;BMP180;58451;51.550;7.208;2023-04-03T05:18:28;102281.40;;;-0.90
70831;BMP180;58451;51.550;7.208;2023-04-03T05:20:04;102283.40;;;-0.90
70831;BMP180;58451;51.550;7.208;2023-04-03T05:21:38;102281.80;;;-0.90
70831;BMP180;58451;51.550;7.208;2023-04-03T05:23:12;102281.80;;;-0.90
70831;BMP180;58451;51.550;7.208;2023-04-03T05:24:44;102283.60;;;-0.90
70831;BMP180;58451;51.550;7.208;2023-04-03T05:26:16;102288.80;;;-0.90
70831;BMP180;58451;51.550;7.208;2023-04-03T05:27:50;102290.60;;;-0.90
70831;BMP180;58451;51.550;7.208;2023-04-03T05:29:23;102288.80;;;-0.90
70831;BMP180;58451;51.550;7.208;2023-04-03T05:30:59;102291.20;;;-0.82
70831;BMP180;58451;51.550;7.208;2023-04-03T05:32:36;102298.60;;;-0.80
70831;BMP180;58451;51.550;7.208;2023-04-03T05:34:21;102297.20;;;-0.80
70831;BMP180;58451;51.550;7.208;2023-04-03T05:35:55;102303.00;;;-0.80
70831;BMP180;58451;51.550;7.208;2023-04-03T05:37:30;102304.80;;;-0.80
70831;BMP180;58451;51.550;7.208;2023-04-03T05:39:02;102307.80;;;-0.78
70831;BMP180;58451;51.550;7.208;2023-04-03T05:40:35;102313.60;;;-0.78
70831;BMP180;58451;51.550;7.208;2023-04-03T05:42:07;102312.20;;;-0.70
70831;BMP180;58451;51.550;7.208;2023-04-03T05:43:40;102313.20;;;-0.70
70831;BMP180;58451;51.550;7.208;2023-04-03T05:45:13;102318.80;;;-0.66
70831;BMP180;58451;51.550;7.208;2023-04-03T05:46:44;102318.20;;;-0.60
70831;BMP180;58451;51.550;7.208;2023-04-03T05:48:16;102315.80;;;-0.60
70831;BMP180;58451;51.550;7.208;2023-04-03T05:49:48;102320.00;;;-0.50
70831;BMP180;58451;51.550;7.208;2023-04-03T05:51:29;102325.20;;;-0.50
70831;BMP180;58451;51.550;7.208;2023-04-03T05:53:05;102321.60;;;-0.50
70831;BMP180;58451;51.550;7.208;2023-04-03T05:54:37;102323.60;;;-0.40
70831;BMP180;58451;51.550;7.208;2023-04-03T05:56:14;102327.40;;;-0.40
70831;BMP180;58451;51.550;7.208;2023-04-03T05:57:47;102328.00;;;-0.32
70831;BMP180;58451;51.550;7.208;2023-04-03T05:59:20;102331.40;;;-0.30
70831;BMP180;58451;51.550;7.208;2023-04-03T06:00:54;102324.00;;;-0.30
70831;BMP180;58451;51.550;7.208;2023-04-03T06:02:25;102331.00;;;-0.20
70831;BMP180;58451;51.550;7.208;2023-04-03T06:03:58;102335.40;;;-0.20
70831;BMP180;58451;51.550;7.208;2023-04-03T06:05:32;102335.80;;;-0.12
70831;BMP180;58451;51.550;7.208;2023-04-03T06:07:05;102336.80;;;-0.10
70831;BMP180;58451;51.550;7.208;2023-04-03T06:08:37;102335.40;;;0.00
70831;BMP180;58451;51.550;7.208;2023-04-03T06:10:12;102338.20;;;0.00
70831;BMP180;58451;51.550;7.208;2023-04-03T06:11:45;102335.20;;;0.08
70831;BMP180;58451;51.550;7.208;2023-04-03T06:13:17;102333.60;;;0.10
70831;BMP180;58451;51.550;7.208;2023-04-03T06:14:49;102338.40;;;0.20
70831;BMP180;58451;51.550;7.208;2023-04-03T06:16:21;102336.60;;;0.20
70831;BMP180;58451;51.550;7.208;2023-04-03T06:17:54;102341.00;;;0.30
70831;BMP180;58451;51.550;7.208;2023-04-03T06:19:26;102332.80;;;0.32
70831;BMP180;58451;51.550;7.208;2023-04-03T06:20:59;102338.20;;;0.40
70831;BMP180;58451;51.550;7.208;2023-04-03T06:22:32;102338.60;;;0.48
70831;BMP180;58451;51.550;7.208;2023-04-03T06:24:06;102337.40;;;0.50
70831;BMP180;58451;51.550;7.208;2023-04-03T06:25:38;102334.60;;;0.60
70831;BMP180;58451;51.550;7.208;2023-04-03T06:27:11;102336.20;;;0.60
70831;BMP180;58451;51.550;7.208;2023-04-03T06:28:43;102336.00;;;0.60
70831;BMP180;58451;51.550;7.208;2023-04-03T06:30:15;102334.00;;;0.70
70831;BMP180;58451;51.550;7.208;2023-04-03T06:31:49;102337.20;;;0.70
70831;BMP180;58451;51.550;7.208;2023-04-03T06:33:21;102335.00;;;0.80
70831;BMP180;58451;51.550;7.208;2023-04-03T06:34:53;102336.80;;;0.80
70831;BMP180;58451;51.550;7.208;2023-04-03T06:36:25;102330.60;;;0.90
70831;BMP180;58451;51.550;7.208;2023-04-03T06:37:57;102332.40;;;0.90
70831;BMP180;58451;51.550;7.208;2023-04-03T06:39:29;102331.20;;;1.00
70831;BMP180;58451;51.550;7.208;2023-04-03T06:41:01;102335.40;;;1.00
70831;BMP180;58451;51.550;7.208;2023-04-03T06:42:32;102328.60;;;1.10
70831;BMP180;58451;51.550;7.208;2023-04-03T06:44:11;102327.20;;;1.10
70831;BMP180;58451;51.550;7.208;2023-04-03T06:45:45;102328.20;;;1.20
70831;BMP180;58451;51.550;7.208;2023-04-03T06:47:17;102333.00;;;1.30
70831;BMP180;58451;51.550;7.208;2023-04-03T06:48:49;102333.00;;;1.30
70831;BMP180;58451;51.550;7.208;2023-04-03T06:50:21;102331.00;;;1.30
70831;BMP180;58451;51.550;7.208;2023-04-03T06:51:53;102332.20;;;1.40
70831;BMP180;58451;51.550;7.208;2023-04-03T06:53:25;102329.60;;;1.48
70831;BMP180;58451;51.550;7.208;2023-04-03T06:54:57;102335.60;;;1.50
70831;BMP180;58451;51.550;7.208;2023-04-03T06:56:32;102335.80;;;1.52
70831;BMP180;58451;51.550;7.208;2023-04-03T06:58:06;102336.80;;;1.60
70831;BMP180;58451;51.550;7.208;2023-04-03T06:59:38;102339.80;;;1.70
70831;BMP180;58451;51.550;7.208;2023-04-03T07:01:13;102342.20;;;1.80
70831;BMP180;58451;51.550;7.208;2023-04-03T07:02:45;102344.60;;;1.80
70831;BMP180;58451;51.550;7.208;2023-04-03T07:04:18;102345.60;;;1.80
70831;BMP180;58451;51.550;7.208;2023-04-03T07:05:51;102352.60;;;1.90
70831;BMP180;58451;51.550;7.208;2023-04-03T07:07:26;102347.80;;;1.90
70831;BMP180;58451;51.550;7.208;2023-04-03T07:08:57;102353.00;;;1.90
70831;BMP180;58451;51.550;7.208;2023-04-03T07:10:29;102351.40;;;1.92
70831;BMP180;58451;51.550;7.208;2023-04-03T07:12:02;102349.00;;;2.00
70831;BMP180;58451;51.550;7.208;2023-04-03T07:13:35;102356.00;;;2.06
70831;BMP180;58451;51.550;7.208;2023-04-03T07:15:09;102359.80;;;2.10
70831;BMP180;58451;51.550;7.208;2023-04-03T07:16:41;102358.20;;;2.20
70831;BMP180;58451;51.550;7.208;2023-04-03T07:18:15;102357.80;;;2.20
70831;BMP180;58451;51.550;7.208;2023-04-03T07:19:49;102353.40;;;2.20
70831;BMP180;58451;51.550;7.208;2023-04-03T07:21:21;102360.60;;;2.30
70831;BMP180;58451;51.550;7.208;2023-04-03T07:22:55;102363.40;;;2.30
70831;BMP180;58451;51.550;7.208;2023-04-03T07:24:27;102367.60;;;2.30
70831;BMP180;58451;51.550;7.208;2023-04-03T07:25:59;102365.60;;;2.40
70831;BMP180;58451;51.550;7.208;2023-04-03T07:27:31;102369.80;;;2.32
70831;BMP180;58451;51.550;7.208;2023-04-03T07:29:03;102367.40;;;2.40
70831;BMP180;58451;51.550;7.208;2023-04-03T07:31:05;102366.00;;;2.40
70831;BMP180;58451;51.550;7.208;2023-04-03T07:32:41;102366.00;;;2.50
70831;BMP180;58451;51.550;7.208;2023-04-03T07:34:13;102378.40;;;2.60
70831;BMP180;58451;51.550;7.208;2023-04-03T07:35:46;102383.20;;;2.70
70831;BMP180;58451;51.550;7.208;2023-04-03T07:37:19;102374.40;;;2.80
70831;BMP180;58451;51.550;7.208;2023-04-03T07:38:50;102382.80;;;2.82
70831;BMP180;58451;51.550;7.208;2023-04-03T07:40:22;102378.60;;;2.90
70831;BMP180;58451;51.550;7.208;2023-04-03T07:41:54;102377.80;;;2.90
70831;BMP180;58451;51.550;7.208;2023-04-03T07:43:39;102382.00;;;2.90
70831;BMP180;58451;51.550;7.208;2023-04-03T07:45:12;102376.00;;;3.00
70831;BMP180;58451;51.550;7.208;2023-04-03T07:46:44;102378.20;;;3.00
70831;BMP180;58451;51.550;7.208;2023-04-03T07:48:23;102375.80;;;3.00
70831;BMP180;58451;51.550;7.208;2023-04-03T07:49:56;102374.20;;;3.00
70831;BMP180;58451;51.550;7.208;2023-04-03T07:51:28;102374.40;;;3.00
70831;BMP180;58451;51.550;7.208;2023-04-03T07:53:03;102368.80;;;3.02
70831;BMP180;58451;51.550;7.208;2023-04-03T07:54:35;102380.40;;;3.00
70831;BMP180;58451;51.550;7.208;2023-04-03T07:56:07;102385.00;;;3.04
70831;BMP180;58451;51.550;7.208;2023-04-03T07:57:40;102385.20;;;3.06
70831;BMP180;58451;51.550;7.208;2023-04-03T07:59:12;102385.40;;;3.16
70831;BMP180;58451;51.550;7.208;2023-04-03T08:00:46;102388.20;;;3.20
70831;BMP180;58451;51.550;7.208;2023-04-03T08:02:18;102390.60;;;3.24
70831;BMP180;58451;51.550;7.208;2023-04-03T08:03:49;102389.40;;;3.30
70831;BMP180;58451;51.550;7.208;2023-04-03T08:05:23;102388.20;;;3.30
70831;BMP180;58451;51.550;7.208;2023-04-03T08:06:54;102392.60;;;3.40
70831;BMP180;58451;51.550;7.208;2023-04-03T08:08:27;102391.20;;;3.48
70831;BMP180;58451;51.550;7.208;2023-04-03T08:10:01;102387.60;;;3.50
70831;BMP180;58451;51.550;7.208;2023-04-03T08:11:32;102386.80;;;3.50
70831;BMP180;58451;51.550;7.208;2023-04-03T08:13:05;102389.60;;;3.60
70831;BMP180;58451;51.550;7.208;2023-04-03T08:14:38;102386.80;;;3.70
70831;BMP180;58451;51.550;7.208;2023-04-03T08:16:15;102391.60;;;3.80
70831;BMP180;58451;51.550;7.208;2023-04-03T08:17:49;102390.20;;;3.80
70831;BMP180;58451;51.550;7.208;2023-04-03T08:19:21;102388.20;;;3.90
70831;BMP180;58451;51.550;7.208;2023-04-03T08:20:57;102383.20;;;3.98
70831;BMP180;58451;51.550;7.208;2023-04-03T08:22:29;102381.40;;;3.92
70831;BMP180;58451;51.550;7.208;2023-04-03T08:24:04;102376.20;;;3.92
70831;BMP180;58451;51.550;7.208;2023-04-03T08:25:43;102378.40;;;4.00
70831;BMP180;58451;51.550;7.208;2023-04-03T08:27:15;102375.40;;;4.08
70831;BMP180;58451;51.550;7.208;2023-04-03T08:28:49;102381.80;;;4.10
70831;BMP180;58451;51.550;7.208;2023-04-03T08:30:21;102384.00;;;4.10
70831;BMP180;58451;51.550;7.208;2023-04-03T08:31:53;102384.20;;;4.10
70831;BMP180;58451;51.550;7.208;2023-04-03T08:33:25;102385.20;;;4.12
70831;BMP180;58451;51.550;7.208;2023-04-03T08:34:57;102374.60;;;4.20
70831;BMP180;58451;51.550;7.208;2023-04-03T08:36:32;102390.80;;;4.20
70831;BMP180;58451;51.550;7.208;2023-04-03T08:38:04;102387.60;;;4.28
70831;BMP180;58451;51.550;7.208;2023-04-03T08:39:38;102384.00;;;4.24
70831;BMP180;58451;51.550;7.208;2023-04-03T08:43:41;102393.00;;;4.40
70831;BMP180;58451;51.550;7.208;2023-04-03T08:45:49;102397.00;;;4.50
70831;BMP180;58451;51.550;7.208;2023-04-03T08:49:42;102398.60;;;4.56
70831;BMP180;58451;51.550;7.208;2023-04-03T08:51:23;102397.20;;;4.60
70831;BMP180;58451;51.550;7.208;2023-04-03T08:53:01;102399.00;;;4.60
70831;BMP180;58451;51.550;7.208;2023-04-03T08:55:04;102397.40;;;4.70
70831;BMP180;58451;51.550;7.208;2023-04-03T08:56:36;102404.20;;;4.70
70831;BMP180;58451;51.550;7.208;2023-04-03T08:58:26;102405.00;;;4.70
70831;BMP180;58451;51.550;7.208;2023-04-03T09:00:16;102399.00;;;4.70